Time;durP1;ratioP1;P1;durP2;ratioP2;P2;SDS_P1;SDS_P2;PMS_P1;PMS_P2;Temp;Humidity;BMP_temperature;BMP_pressure;BME280_temperature;BME280_humidity;BME280_pressure;Samples;Min_cycle;Max_cycle;Signal;HPM_P1;HPM_P2
2023/02/18 00:06:43;;;;;;;6.4;4.3;;;;;;;10.7;83.3;98390;;;;
2023/02/18 00:16:43;;;;;;;6.4;4.3;;;;;;;10.8;82.5;98380;;;;
2023/02/18 00:26:43;;;;;;;6.4;4.3;;;;;;;10.9;82.2;98380;;;;
2023/02/18 00:36:43;;;;;;;5.1;3.5;;;;;;;10.9;82;98380;;;;
2023/02/18 00:46:43;;;;;;;5.1;3.5;;;;;;;10.9;81;98390;;;;
2023/02/18 00:57:43;;;;;;;5.1;3.5;;;;;;;11.1;79.6;98370;;;;
2023/02/18 01:07:43;;;;;;;4.3;2.6;;;;;;;11.2;79.6;98370;;;;
2023/02/18 01:18:43;;;;;;;4.3;2.6;;;;;;;11.2;80;98410;;;;
2023/02/18 01:29:43;;;;;;;4.3;2.6;;;;;;;10.2;87.2;98480;;;;
2023/02/18 01:40:43;;;;;;;4.6;2.6;;;;;;;9.1;88.2;98480;;;;
2023/02/18 01:50:43;;;;;;;4.6;2.6;;;;;;;8.7;90.1;98500;;;;
2023/02/18 02:01:43;;;;;;;4.6;2.6;;;;;;;8.6;88.9;98500;;;;
2023/02/18 02:12:43;;;;;;;7.5;3.8;;;;;;;8.5;89.8;98510;;;;
2023/02/18 02:22:43;;;;;;;7.5;3.8;;;;;;;8.6;87.3;98500;;;;
2023/02/18 02:33:43;;;;;;;5.2;3;;;;;;;8.5;86.7;98510;;;;
2023/02/18 02:43:43;;;;;;;5.2;3;;;;;;;8.5;84.7;98500;;;;
2023/02/18 02:54:43;;;;;;;5.2;3;;;;;;;8.3;86.4;98530;;;;
2023/02/18 03:04:43;;;;;;;5.6;3;;;;;;;8.3;86.8;98530;;;;
2023/02/18 03:14:43;;;;;;;5.6;3;;;;;;;8.3;86.7;98540;;;;
2023/02/18 03:25:43;;;;;;;5.6;3;;;;;;;8.2;85.8;98550;;;;
2023/02/18 03:35:43;;;;;;;5.1;2.6;;;;;;;8.2;86.1;98560;;;;
2023/02/18 03:46:43;;;;;;;5.1;2.6;;;;;;;8;86.8;98570;;;;
2023/02/18 03:56:43;;;;;;;5.1;2.6;;;;;;;8;86.7;98590;;;;
2023/02/18 04:06:43;;;;;;;4.7;2.2;;;;;;;7.9;86.1;98600;;;;
2023/02/18 04:17:43;;;;;;;4.7;2.2;;;;;;;7.8;86.6;98600;;;;
2023/02/18 04:27:43;;;;;;;4.7;2.2;;;;;;;7.9;84.4;98600;;;;
2023/02/18 04:38:43;;;;;;;4.8;2.8;;;;;;;7.9;82.5;98620;;;;
2023/02/18 04:49:43;;;;;;;4.8;2.8;;;;;;;7.8;80.9;98600;;;;
2023/02/18 04:59:43;;;;;;;4.8;2.8;;;;;;;7.8;75.6;98610;;;;
2023/02/18 05:09:43;;;;;;;5.3;2.6;;;;;;;7.7;69.8;98610;;;;
2023/02/18 05:20:43;;;;;;;5.3;2.6;;;;;;;7.6;68.1;98630;;;;
2023/02/18 05:31:43;;;;;;;5.3;2.6;;;;;;;7.4;69.8;98630;;;;
2023/02/18 05:41:43;;;;;;;3.8;1.4;;;;;;;7.2;69;98630;;;;
2023/02/18 05:51:43;;;;;;;3.8;1.4;;;;;;;7.4;63;98640;;;;
2023/02/18 06:02:43;;;;;;;3.8;1.4;;;;;;;7.4;61.4;98650;;;;
2023/02/18 06:12:43;;;;;;;5.6;1.5;;;;;;;7.2;63.4;98670;;;;
2023/02/18 06:22:43;;;;;;;5.6;1.5;;;;;;;7.2;64.4;98650;;;;
2023/02/18 06:33:43;;;;;;;5.9;1.5;;;;;;;7.2;66;98680;;;;
2023/02/18 06:43:43;;;;;;;5.9;1.5;;;;;;;7.6;61.6;98670;;;;
2023/02/18 06:54:43;;;;;;;5.9;1.5;;;;;;;7.9;61.4;98660;;;;
2023/02/18 07:05:43;;;;;;;2.7;1.8;;;;;;;8.2;59.7;98680;;;;
2023/02/18 07:15:43;;;;;;;2.7;1.8;;;;;;;8.4;58.9;98660;;;;
2023/02/18 07:25:43;;;;;;;2.7;1.8;;;;;;;8.7;59.9;98690;;;;
2023/02/18 07:35:43;;;;;;;5.2;2;;;;;;;8.9;58.6;98670;;;;
2023/02/18 07:45:43;;;;;;;5.2;2;;;;;;;8.9;56.7;98690;;;;
2023/02/18 07:56:43;;;;;;;5.2;2;;;;;;;9;54.1;98680;;;;
2023/02/18 08:06:44;;;;;;;4.3;2.2;;;;;;;9;54.2;98670;;;;
2023/02/18 08:17:43;;;;;;;4.3;2.2;;;;;;;9;54.5;98680;;;;
2023/02/18 08:27:43;;;;;;;4.3;2.2;;;;;;;9.1;53.8;98690;;;;
2023/02/18 08:38:43;;;;;;;6.3;3.7;;;;;;;9.1;52.9;98680;;;;
2023/02/18 08:48:43;;;;;;;6.3;3.7;;;;;;;9.2;53;98670;;;;
2023/02/18 08:59:43;;;;;;;6.3;3.7;;;;;;;9.4;52.8;98670;;;;
2023/02/18 09:10:43;;;;;;;5.6;2.5;;;;;;;9.5;52.6;98670;;;;
2023/02/18 09:20:43;;;;;;;5.6;2.5;;;;;;;9.6;53.8;98680;;;;
2023/02/18 09:31:43;;;;;;;5.6;2.5;;;;;;;9.5;53.9;98680;;;;
2023/02/18 09:41:43;;;;;;;5.8;2.5;;;;;;;9.6;54.5;98680;;;;
2023/02/18 09:51:43;;;;;;;5.8;2.5;;;;;;;9.6;55.7;98690;;;;
2023/02/18 10:01:43;;;;;;;5.8;2.5;;;;;;;9.6;55.6;98670;;;;
2023/02/18 10:12:43;;;;;;;4.2;2;;;;;;;9.8;54.7;98640;;;;
2023/02/18 10:22:43;;;;;;;4.2;2;;;;;;;10.1;54.5;98630;;;;
2023/02/18 10:32:43;;;;;;;4.9;2.1;;;;;;;10.1;52.4;98610;;;;
2023/02/18 10:43:43;;;;;;;4.9;2.1;;;;;;;9.8;54;98620;;;;
2023/02/18 10:53:43;;;;;;;4.9;2.1;;;;;;;9.8;55.5;98610;;;;
2023/02/18 11:03:43;;;;;;;4.8;2.6;;;;;;;9.7;56.5;98620;;;;
2023/02/18 11:13:43;;;;;;;4.8;2.6;;;;;;;9.6;57.4;98610;;;;
2023/02/18 11:24:47;;;;;;;4.8;2.6;;;;;;;9.9;58.9;98590;;;;
2023/02/18 11:34:44;;;;;;;5.1;3;;;;;;;9.3;62.3;98610;;;;
2023/02/18 11:44:44;;;;;;;5.1;3;;;;;;;8.8;66.5;98600;;;;
2023/02/18 11:55:43;;;;;;;5.1;3;;;;;;;8.3;68.8;98580;;;;
2023/02/18 12:05:43;;;;;;;6.1;2.8;;;;;;;8.2;70.7;98560;;;;
2023/02/18 12:16:43;;;;;;;6.1;2.8;;;;;;;8;71.9;98560;;;;
2023/02/18 12:26:43;;;;;;;6.1;2.8;;;;;;;8.3;71.9;98540;;;;
2023/02/18 12:37:43;;;;;;;8.5;3.8;;;;;;;8.3;72.6;98520;;;;
2023/02/18 12:47:43;;;;;;;8.5;3.8;;;;;;;8.4;73.4;98510;;;;
2023/02/18 12:57:43;;;;;;;8.5;3.8;;;;;;;8;74.9;98480;;;;
2023/02/18 13:07:43;;;;;;;8.3;4;;;;;;;7.9;76.4;98450;;;;
2023/02/18 13:17:43;;;;;;;8.3;4;;;;;;;7.9;77;98430;;;;
2023/02/18 13:28:43;;;;;;;8.3;4;;;;;;;7.7;76.6;98420;;;;
2023/02/18 13:39:43;;;;;;;8.1;3.9;;;;;;;7.6;77.8;98390;;;;
2023/02/18 13:49:43;;;;;;;8.1;3.9;;;;;;;7.6;78.2;98360;;;;
2023/02/18 13:59:43;;;;;;;8.1;3.9;;;;;;;7.7;78.3;98340;;;;
2023/02/18 14:10:43;;;;;;;12.7;6.4;;;;;;;7.8;78.2;98310;;;;
2023/02/18 14:21:43;;;;;;;12.7;6.4;;;;;;;7.8;78;98270;;;;
2023/02/18 14:31:43;;;;;;;12.7;6.4;;;;;;;7.7;78.6;98250;;;;
2023/02/18 14:41:43;;;;;;;14.6;7;;;;;;;7.9;79.1;98210;;;;
2023/02/18 14:51:43;;;;;;;14.6;7;;;;;;;8;79.7;98190;;;;
2023/02/18 15:02:43;;;;;;;16.1;11.1;;;;;;;8;80.3;98170;;;;
2023/02/18 15:12:43;;;;;;;16.1;11.1;;;;;;;7.8;81.5;98160;;;;
2023/02/18 15:22:43;;;;;;;16.1;11.1;;;;;;;7.7;82.4;98140;;;;
2023/02/18 15:32:43;;;;;;;17.8;11.5;;;;;;;7.7;82.5;98100;;;;
2023/02/18 15:42:44;;;;;;;17.8;11.5;;;;;;;7.4;83.6;98090;;;;
2023/02/18 15:52:43;;;;;;;17.8;11.5;;;;;;;7.5;83.6;98050;;;;
2023/02/18 16:02:43;;;;;;;18.5;14.2;;;;;;;7.3;84.6;98030;;;;
2023/02/18 16:12:44;;;;;;;18.5;14.2;;;;;;;7.4;85;98010;;;;
2023/02/18 16:23:43;;;;;;;18.5;14.2;;;;;;;7.6;87.4;98000;;;;
2023/02/18 16:33:43;;;;;;;16.5;12.4;;;;;;;8.3;89.9;97990;;;;
2023/02/18 16:44:43;;;;;;;16.5;12.4;;;;;;;8.6;89.8;97980;;;;
2023/02/18 16:54:43;;;;;;;16.5;12.4;;;;;;;9.1;90;97980;;;;
2023/02/18 17:04:43;;;;;;;15.3;12.7;;;;;;;9.9;88.9;98000;;;;
2023/02/18 17:15:43;;;;;;;15.3;12.7;;;;;;;10.1;87;97990;;;;
2023/02/18 17:26:43;;;;;;;15.3;12.7;;;;;;;10.4;84.5;98000;;;;
2023/02/18 17:37:43;;;;;;;8;5.4;;;;;;;10.5;82.6;98000;;;;
2023/02/18 17:47:43;;;;;;;8;5.4;;;;;;;10.5;82.7;98000;;;;
2023/02/18 17:58:45;;;;;;;8;5.4;;;;;;;10.5;81.5;98010;;;;
2023/02/18 18:08:43;;;;;;;9.9;6.5;;;;;;;10.5;81.3;98030;;;;
2023/02/18 18:19:43;;;;;;;9.9;6.5;;;;;;;10.4;81.8;98030;;;;
2023/02/18 18:30:43;;;;;;;9.9;6.5;;;;;;;10.5;81.4;98040;;;;
2023/02/18 18:40:43;;;;;;;11.6;7.4;;;;;;;10.4;82.3;98070;;;;
2023/02/18 18:51:43;;;;;;;11.6;7.4;;;;;;;10;85.3;98090;;;;
2023/02/18 19:01:43;;;;;;;9.8;7.2;;;;;;;9.7;86.4;98090;;;;
2023/02/18 19:12:43;;;;;;;9.8;7.2;;;;;;;9.7;85.6;98100;;;;
2023/02/18 19:22:43;;;;;;;9.8;7.2;;;;;;;9.7;84.3;98110;;;;
2023/02/18 19:32:43;;;;;;;11.5;8.3;;;;;;;9.8;81.8;98120;;;;
2023/02/18 19:43:45;;;;;;;11.5;8.3;;;;;;;9.9;80.6;98130;;;;
2023/02/18 19:53:44;;;;;;;11.5;8.3;;;;;;;9.9;80.2;98140;;;;
2023/02/18 20:04:43;;;;;;;11.5;5.5;;;;;;;9.9;78.7;98150;;;;
2023/02/18 20:14:43;;;;;;;11.5;5.5;;;;;;;9.9;78.8;98150;;;;
2023/02/18 20:25:46;;;;;;;11.5;5.5;;;;;;;9.7;79.5;98170;;;;
2023/02/18 20:36:44;;;;;;;8.2;4.9;;;;;;;9.7;78.8;98180;;;;
2023/02/18 20:46:43;;;;;;;8.2;4.9;;;;;;;9.7;78.3;98170;;;;
2023/02/18 20:57:43;;;;;;;8.2;4.9;;;;;;;9.8;77;98170;;;;
2023/02/18 21:08:43;;;;;;;5.3;3.3;;;;;;;9.9;76.4;98210;;;;
2023/02/18 21:18:43;;;;;;;5.3;3.3;;;;;;;9.7;79.7;98270;;;;
2023/02/18 21:29:43;;;;;;;5.3;3.3;;;;;;;8.8;83.1;98310;;;;
2023/02/18 21:40:43;;;;;;;7.8;3.3;;;;;;;8.4;84.2;98320;;;;
2023/02/18 21:50:43;;;;;;;7.8;3.3;;;;;;;8.3;84.3;98330;;;;
2023/02/18 22:00:44;;;;;;;7.8;3.3;;;;;;;8.3;85.2;98350;;;;
2023/02/18 22:11:43;;;;;;;3;1.6;;;;;;;8.2;86.7;98370;;;;
2023/02/18 22:21:43;;;;;;;3;1.6;;;;;;;8;87;98380;;;;
2023/02/18 22:32:43;;;;;;;5;2.1;;;;;;;8;86.8;98400;;;;
2023/02/18 22:43:43;;;;;;;5;2.1;;;;;;;8;86.5;98420;;;;
2023/02/18 22:54:43;;;;;;;5;2.1;;;;;;;7.9;87;98420;;;;
2023/02/18 23:04:43;;;;;;;5;2;;;;;;;7.8;86.8;98440;;;;
2023/02/18 23:15:43;;;;;;;5;2;;;;;;;7.8;86.8;98450;;;;
2023/02/18 23:26:43;;;;;;;5;2;;;;;;;7.7;88.1;98460;;;;
2023/02/18 23:38:15;;;;;;;6.3;3.4;;;;;;;7.7;88.6;98480;;;;
2023/02/18 23:48:43;;;;;;;6.3;3.4;;;;;;;7.7;88.3;98500;;;;
2023/02/18 23:58:43;;;;;;;6.3;3.4;;;;;;;7.6;89.1;98510;;;;
